createdAt,value
2019-05-09T00:00:49.867Z,10.10
2019-05-09T00:01:50.130Z,10.18
2019-05-09T00:02:50.273Z,10.18
2019-05-09T00:03:50.460Z,10.12
2019-05-09T00:04:50.663Z,10.05
2019-05-09T00:05:50.842Z,10.06
2019-05-09T00:06:51.094Z,10.07
2019-05-09T00:07:53.088Z,10.09
2019-05-09T00:08:53.229Z,10.13
2019-05-09T00:09:53.346Z,10.21
2019-05-09T00:10:53.454Z,10.17
2019-05-09T00:11:53.156Z,10.17
2019-05-09T00:12:54.047Z,10.18
2019-05-09T00:13:53.815Z,10.18
2019-05-09T00:14:53.969Z,10.12
2019-05-09T00:15:54.240Z,10.13
2019-05-09T00:16:53.978Z,10.10
2019-05-09T00:17:53.363Z,10.23
2019-05-09T00:18:54.384Z,10.13
2019-05-09T00:19:53.959Z,10.10
2019-05-09T00:20:54.792Z,10.07
2019-05-09T00:21:54.144Z,10.00
2019-05-09T00:22:55.098Z,9.95
2019-05-09T00:23:54.280Z,9.94
2019-05-09T00:24:54.377Z,9.88
2019-05-09T00:25:54.605Z,9.92
2019-05-09T00:26:54.765Z,9.84
2019-05-09T00:27:54.944Z,9.76
2019-05-09T00:28:55.103Z,9.74
2019-05-09T00:29:55.256Z,9.84
2019-05-09T00:30:55.455Z,9.85
2019-05-09T00:31:55.665Z,9.85
2019-05-09T00:32:55.918Z,9.87
2019-05-09T00:33:55.943Z,9.85
2019-05-09T00:34:56.081Z,9.87
2019-05-09T00:35:56.240Z,9.87
2019-05-09T00:36:56.419Z,9.92
2019-05-09T00:37:56.612Z,9.91
2019-05-09T00:38:56.771Z,9.91
2019-05-09T00:39:57.005Z,9.88
2019-05-09T00:40:59.056Z,9.80
2019-05-09T00:41:58.404Z,9.91
2019-05-09T00:42:57.568Z,9.76
2019-05-09T00:43:57.766Z,9.88
2019-05-09T00:44:57.946Z,9.82
2019-05-09T00:45:58.116Z,9.77
2019-05-09T00:46:58.313Z,9.82
2019-05-09T00:47:58.476Z,9.84
2019-05-09T00:48:58.723Z,9.81
2019-05-09T00:49:58.795Z,9.81
2019-05-09T00:50:59.015Z,9.76
2019-05-09T00:51:59.194Z,9.77
2019-05-09T00:52:59.392Z,9.84
2019-05-09T00:53:59.605Z,9.80
2019-05-09T00:54:59.833Z,9.81
2019-05-09T00:56:00.004Z,9.85
2019-05-09T00:57:00.155Z,9.88
2019-05-09T00:58:00.302Z,9.84
2019-05-09T00:59:00.548Z,9.91
2019-05-09T01:00:00.606Z,9.90
2019-05-09T01:01:00.791Z,9.84
2019-05-09T01:02:00.942Z,9.97
2019-05-09T01:03:03.414Z,9.82
2019-05-09T01:04:01.305Z,9.91
2019-05-09T01:05:04.012Z,9.84
2019-05-09T01:06:03.716Z,9.85
2019-05-09T01:07:03.441Z,9.99
2019-05-09T01:08:04.083Z,9.91
2019-05-09T01:09:04.222Z,9.85
2019-05-09T01:10:04.306Z,9.95
2019-05-09T01:11:11.771Z,9.94
2019-05-09T01:12:04.634Z,9.90
2019-05-09T01:13:03.852Z,9.91
2019-05-09T01:14:03.641Z,9.97
2019-05-09T01:15:04.038Z,9.85
2019-05-09T01:16:04.569Z,9.82
2019-05-09T01:17:04.459Z,9.88
2019-05-09T01:18:04.379Z,9.81
2019-05-09T01:19:04.847Z,9.73
2019-05-09T01:20:04.055Z,9.77
2019-05-09T01:21:04.262Z,9.91
2019-05-09T01:22:04.458Z,9.81
2019-05-09T01:23:04.667Z,9.87
2019-05-09T01:24:04.913Z,9.87
2019-05-09T01:25:05.125Z,9.81
2019-05-09T01:26:05.323Z,9.82
2019-05-09T01:27:05.569Z,9.82
2019-05-09T01:28:05.665Z,9.77
2019-05-09T01:29:05.853Z,9.80
2019-05-09T01:30:06.058Z,9.66
2019-05-09T01:31:06.322Z,9.70
2019-05-09T01:32:06.560Z,9.64
2019-05-09T01:33:06.654Z,9.64
2019-05-09T01:34:06.861Z,9.56
2019-05-09T01:35:07.109Z,9.52
2019-05-09T01:36:07.354Z,9.55
2019-05-09T01:37:07.585Z,9.55
2019-05-09T01:38:07.789Z,9.54
2019-05-09T01:39:07.978Z,9.56
2019-05-09T01:40:08.195Z,9.51
2019-05-09T01:41:23.637Z,9.45
2019-05-09T01:42:09.546Z,9.42
2019-05-09T01:43:08.735Z,9.39
2019-05-09T01:44:08.926Z,9.30
2019-05-09T01:45:09.146Z,9.31
2019-05-09T01:46:09.298Z,9.18
2019-05-09T01:47:09.494Z,9.18
2019-05-09T01:48:09.650Z,9.13
2019-05-09T01:49:09.867Z,9.12
2019-05-09T01:50:10.026Z,9.12
2019-05-09T01:51:10.164Z,9.08
2019-05-09T01:52:10.350Z,9.12
2019-05-09T01:53:10.502Z,9.05
2019-05-09T01:54:10.668Z,9.03
2019-05-09T01:55:10.828Z,9.02
2019-05-09T01:56:10.981Z,9.03
2019-05-09T01:57:11.227Z,9.02
2019-05-09T01:58:11.308Z,9.00
2019-05-09T01:59:13.538Z,8.93
2019-05-09T02:00:13.252Z,8.87
2019-05-09T02:01:13.496Z,8.81
2019-05-09T02:02:14.219Z,8.78
2019-05-09T02:03:13.980Z,9.03
2019-05-09T02:04:13.836Z,8.93
2019-05-09T02:05:13.645Z,8.96
2019-05-09T02:06:13.640Z,9.12
2019-05-09T02:07:13.973Z,9.00
2019-05-09T02:08:14.302Z,9.05
2019-05-09T02:09:14.272Z,8.96
2019-05-09T02:10:13.990Z,9.00
2019-05-09T02:11:14.591Z,8.92
2019-05-09T02:12:14.170Z,8.95
2019-05-09T02:13:14.988Z,8.86
2019-05-09T02:14:14.116Z,8.84
2019-05-09T02:15:14.304Z,8.95
2019-05-09T02:16:14.468Z,8.96
2019-05-09T02:17:14.692Z,8.93
2019-05-09T02:18:14.874Z,8.82
2019-05-09T02:19:15.028Z,8.93
2019-05-09T02:20:15.179Z,8.84
2019-05-09T02:21:15.352Z,8.90
2019-05-09T02:22:15.546Z,8.87
2019-05-09T02:23:15.781Z,8.81
2019-05-09T02:24:15.946Z,8.82
2019-05-09T02:25:16.115Z,8.84
2019-05-09T02:26:16.296Z,8.92
2019-05-09T02:27:16.479Z,8.86
2019-05-09T02:28:16.708Z,8.78
2019-05-09T02:29:16.877Z,8.90
2019-05-09T02:30:17.054Z,8.86
2019-05-09T02:31:17.257Z,8.81
2019-05-09T02:32:17.413Z,8.81
2019-05-09T02:33:17.591Z,8.79
2019-05-09T02:34:17.733Z,8.89
2019-05-09T02:35:17.917Z,8.82
2019-05-09T02:36:19.120Z,8.92
2019-05-09T02:37:19.204Z,8.79
2019-05-09T02:38:19.962Z,8.95
2019-05-09T02:39:19.521Z,8.87
2019-05-09T02:40:18.935Z,8.93
2019-05-09T02:41:20.076Z,9.02
2019-05-09T02:42:19.754Z,9.09
2019-05-09T02:43:20.142Z,8.96
2019-05-09T02:44:19.834Z,9.05
2019-05-09T02:45:20.504Z,9.02
2019-05-09T02:46:19.674Z,9.00
2019-05-09T02:47:19.843Z,9.03
2019-05-09T02:48:20.026Z,9.08
2019-05-09T02:49:20.203Z,9.05
2019-05-09T02:50:20.380Z,9.09
2019-05-09T02:51:20.580Z,9.02
2019-05-09T02:52:20.776Z,9.12
2019-05-09T02:53:20.953Z,9.00
2019-05-09T02:54:21.109Z,9.03
2019-05-09T02:55:22.288Z,9.09
2019-05-09T02:56:21.459Z,9.12
2019-05-09T02:57:21.625Z,9.05
2019-05-09T02:58:21.744Z,9.12
2019-05-09T02:59:21.917Z,9.21
2019-05-09T03:00:22.095Z,9.21
2019-05-09T03:01:22.270Z,9.26
2019-05-09T03:02:22.450Z,9.26
2019-05-09T03:03:22.584Z,9.24
2019-05-09T03:04:22.698Z,9.19
2019-05-09T03:05:22.879Z,9.19
2019-05-09T03:06:23.035Z,9.19
2019-05-09T03:07:23.203Z,9.16
2019-05-09T03:08:23.354Z,9.08
2019-05-09T03:09:23.504Z,9.12
2019-05-09T03:10:23.661Z,9.11
2019-05-09T03:11:23.808Z,9.16
2019-05-09T03:12:34.479Z,9.24
2019-05-09T03:13:28.851Z,9.11
2019-05-09T03:14:24.197Z,9.09
2019-05-09T03:15:24.385Z,9.16
2019-05-09T03:16:24.543Z,9.15
2019-05-09T03:17:28.066Z,9.18
2019-05-09T03:18:24.878Z,9.15
2019-05-09T03:19:25.083Z,9.11
2019-05-09T03:20:25.247Z,9.11
2019-05-09T03:21:25.421Z,9.13
2019-05-09T03:22:25.589Z,9.11
2019-05-09T03:23:28.513Z,9.03
2019-05-09T03:24:28.573Z,9.09
2019-05-09T03:25:28.895Z,9.08
2019-05-09T03:26:29.270Z,9.11
2019-05-09T03:27:28.699Z,9.03
2019-05-09T03:28:28.327Z,9.03
2019-05-09T03:29:29.151Z,9.13
2019-05-09T03:30:29.098Z,9.09
2019-05-09T03:31:29.826Z,9.03
2019-05-09T03:32:29.656Z,9.12
2019-05-09T03:33:30.821Z,9.12
2019-05-09T03:34:30.358Z,9.16
2019-05-09T03:35:28.876Z,9.12
2019-05-09T03:36:28.195Z,9.08
2019-05-09T03:37:29.177Z,9.05
2019-05-09T03:38:28.494Z,9.12
2019-05-09T03:39:29.513Z,9.05
2019-05-09T03:40:28.641Z,9.11
2019-05-09T03:41:28.806Z,9.11
2019-05-09T03:42:39.629Z,9.08
2019-05-09T03:43:31.076Z,9.00
2019-05-09T03:44:29.311Z,9.05
2019-05-09T03:45:29.455Z,9.05
2019-05-09T03:46:29.597Z,9.05
2019-05-09T03:47:29.780Z,9.03
2019-05-09T03:48:29.969Z,8.99
2019-05-09T03:49:30.148Z,8.99
2019-05-09T03:50:30.306Z,8.87
2019-05-09T03:51:30.492Z,8.97
2019-05-09T03:52:30.633Z,8.95
2019-05-09T03:53:30.781Z,8.89
2019-05-09T03:54:31.006Z,9.02
2019-05-09T03:55:31.156Z,9.03
2019-05-09T03:56:31.338Z,9.05
2019-05-09T03:57:31.486Z,9.03
2019-05-09T03:58:31.703Z,9.00
2019-05-09T03:59:31.856Z,9.03
2019-05-09T04:00:32.022Z,9.02
2019-05-09T04:01:32.195Z,8.97
2019-05-09T04:02:32.437Z,9.08
2019-05-09T04:03:32.584Z,9.05
2019-05-09T04:04:32.761Z,9.21
2019-05-09T04:05:32.935Z,9.15
2019-05-09T04:06:33.150Z,9.09
2019-05-09T04:07:33.356Z,9.11
2019-05-09T04:08:33.539Z,9.13
2019-05-09T04:09:33.696Z,9.02
2019-05-09T04:10:33.895Z,9.21
2019-05-09T04:11:34.110Z,9.12
2019-05-09T04:12:34.329Z,9.15
2019-05-09T04:13:34.509Z,9.05
2019-05-09T04:14:34.718Z,9.00
2019-05-09T04:15:34.874Z,8.99
2019-05-09T04:16:35.079Z,9.05
2019-05-09T04:17:35.244Z,9.08
2019-05-09T04:18:35.415Z,9.13
2019-05-09T04:19:35.557Z,9.08
2019-05-09T04:20:37.690Z,8.96
2019-05-09T04:21:38.178Z,9.13
2019-05-09T04:22:38.196Z,9.08
2019-05-09T04:23:37.871Z,9.08
2019-05-09T04:24:38.193Z,9.00
2019-05-09T04:25:37.725Z,8.89
2019-05-09T04:26:38.143Z,8.95
2019-05-09T04:27:37.945Z,8.79
2019-05-09T04:28:39.719Z,8.82
2019-05-09T04:29:38.227Z,8.74
2019-05-09T04:30:37.388Z,8.69
2019-05-09T04:31:38.584Z,8.66
2019-05-09T04:32:37.779Z,8.72
2019-05-09T04:33:38.985Z,8.68
2019-05-09T04:34:38.269Z,8.74
2019-05-09T04:35:38.351Z,8.64
2019-05-09T04:36:39.576Z,8.57
2019-05-09T04:37:38.724Z,8.56
2019-05-09T04:38:40.023Z,8.69
2019-05-09T04:39:40.743Z,8.53
2019-05-09T04:40:44.720Z,8.56
2019-05-09T04:41:41.409Z,8.50
2019-05-09T04:42:43.047Z,8.50
2019-05-09T04:43:40.707Z,8.52
2019-05-09T04:44:39.972Z,8.59
2019-05-09T04:45:41.855Z,8.64
2019-05-09T04:46:41.204Z,8.54
2019-05-09T04:47:43.493Z,8.57
2019-05-09T04:48:41.603Z,8.59
2019-05-09T04:49:44.972Z,8.57
2019-05-09T04:50:41.849Z,8.59
2019-05-09T04:51:40.949Z,8.64
2019-05-09T04:52:41.144Z,8.59
2019-05-09T04:53:41.263Z,8.60
2019-05-09T04:54:41.490Z,8.66
2019-05-09T04:55:41.624Z,8.66
2019-05-09T04:56:41.759Z,8.78
2019-05-09T04:57:41.972Z,8.78
2019-05-09T04:58:42.101Z,8.77
2019-05-09T04:59:42.229Z,8.86
2019-05-09T05:00:42.443Z,8.87
2019-05-09T05:01:42.606Z,8.87
2019-05-09T05:02:42.753Z,8.86
2019-05-09T05:03:42.906Z,8.93
2019-05-09T05:04:43.077Z,8.99
2019-05-09T05:05:43.242Z,9.08
2019-05-09T05:06:43.382Z,9.05
2019-05-09T05:07:43.557Z,9.05
2019-05-09T05:08:43.710Z,9.19
2019-05-09T05:09:43.898Z,9.21
2019-05-09T05:10:44.106Z,9.29
2019-05-09T05:11:46.530Z,9.26
2019-05-09T05:12:45.433Z,9.39
2019-05-09T05:13:44.675Z,9.49
2019-05-09T05:14:44.836Z,9.59
2019-05-09T05:15:45.036Z,9.51
2019-05-09T05:16:45.187Z,9.54
2019-05-09T05:17:47.596Z,9.63
2019-05-09T05:18:47.675Z,9.73
2019-05-09T05:19:47.602Z,9.76
2019-05-09T05:20:48.078Z,9.81
2019-05-09T05:21:48.010Z,9.90
2019-05-09T05:22:47.808Z,9.99
2019-05-09T05:23:47.409Z,9.99
2019-05-09T05:24:48.834Z,10.07
2019-05-09T05:25:47.579Z,10.13
2019-05-09T05:26:48.543Z,10.12
2019-05-09T05:27:48.155Z,10.10
2019-05-09T05:28:47.530Z,10.24
2019-05-09T05:29:47.668Z,10.24
2019-05-09T05:30:48.628Z,10.24
2019-05-09T05:31:47.884Z,10.25
2019-05-09T05:32:48.946Z,10.31
2019-05-09T05:33:51.229Z,10.28
2019-05-09T05:34:50.215Z,10.38
2019-05-09T05:35:48.335Z,10.27
2019-05-09T05:36:48.590Z,10.17
2019-05-09T05:37:48.614Z,10.15
2019-05-09T05:38:48.758Z,10.12
2019-05-09T05:39:48.920Z,10.05
2019-05-09T05:40:49.893Z,10.05
2019-05-09T05:41:50.298Z,9.90
2019-05-09T05:42:49.466Z,9.91
2019-05-09T05:43:49.628Z,9.88
2019-05-09T05:44:49.887Z,9.87
2019-05-09T05:45:50.040Z,9.87
2019-05-09T05:46:50.937Z,9.94
2019-05-09T05:47:51.364Z,10.09
2019-05-09T05:48:50.586Z,10.10
2019-05-09T05:49:50.702Z,9.94
2019-05-09T05:50:50.876Z,9.99
2019-05-09T05:51:51.039Z,10.10
2019-05-09T05:52:51.221Z,10.09
2019-05-09T05:53:51.417Z,10.09
2019-05-09T05:54:51.597Z,10.09
2019-05-09T05:55:52.796Z,10.12
2019-05-09T05:56:52.936Z,10.18
2019-05-09T05:57:52.044Z,10.25
2019-05-09T05:58:52.198Z,10.23
2019-05-09T05:59:52.316Z,10.23
2019-05-09T06:00:52.468Z,10.28
2019-05-09T06:01:52.614Z,10.25
2019-05-09T06:02:52.772Z,10.30
2019-05-09T06:03:52.930Z,10.33
2019-05-09T06:04:53.108Z,10.30
2019-05-09T06:05:53.264Z,10.34
2019-05-09T06:06:53.425Z,10.30
2019-05-09T06:07:53.578Z,10.33
2019-05-09T06:08:53.718Z,10.34
2019-05-09T06:09:53.870Z,10.43
2019-05-09T06:10:54.067Z,10.49
2019-05-09T06:11:54.219Z,10.55
2019-05-09T06:12:57.372Z,10.45
2019-05-09T06:14:01.622Z,10.64
2019-05-09T06:14:58.219Z,10.59
2019-05-09T06:15:58.447Z,10.79
2019-05-09T06:16:55.149Z,10.79
2019-05-09T06:17:57.661Z,10.71
2019-05-09T06:18:57.731Z,10.71
2019-05-09T06:19:55.606Z,10.76
2019-05-09T06:20:58.147Z,10.84
2019-05-09T06:21:57.407Z,10.90
2019-05-09T06:22:58.247Z,11.02
2019-05-09T06:23:58.446Z,11.12
2019-05-09T06:24:58.274Z,11.07
2019-05-09T06:25:58.742Z,11.15
2019-05-09T06:26:58.655Z,11.16
2019-05-09T06:27:58.540Z,11.20
2019-05-09T06:28:58.147Z,11.16
2019-05-09T06:29:58.142Z,11.25
2019-05-09T06:30:58.717Z,11.27
2019-05-09T06:31:58.753Z,11.22
2019-05-09T06:32:58.215Z,11.10
2019-05-09T06:33:59.079Z,11.25
2019-05-09T06:34:58.215Z,11.25
2019-05-09T06:35:59.027Z,11.19
2019-05-09T06:37:02.980Z,11.37
2019-05-09T06:37:59.166Z,11.51
2019-05-09T06:38:59.127Z,11.48
2019-05-09T06:39:59.223Z,11.52
2019-05-09T06:40:59.385Z,11.59
2019-05-09T06:41:59.569Z,11.49
2019-05-09T06:43:00.268Z,11.49
2019-05-09T06:44:13.619Z,11.56
2019-05-09T06:45:02.099Z,11.73
2019-05-09T06:46:00.444Z,11.62
2019-05-09T06:47:00.512Z,11.60
2019-05-09T06:48:00.712Z,11.78
2019-05-09T06:49:20.591Z,11.93
2019-05-09T06:50:03.095Z,11.96
2019-05-09T06:51:01.242Z,11.91
2019-05-09T06:52:01.425Z,12.02
2019-05-09T06:53:01.626Z,11.89
2019-05-09T06:54:01.803Z,12.08
2019-05-09T06:55:01.980Z,12.25
2019-05-09T06:56:02.164Z,12.35
2019-05-09T06:57:02.365Z,12.50
2019-05-09T06:58:02.601Z,12.50
2019-05-09T06:59:02.778Z,12.36
2019-05-09T07:00:02.994Z,12.29
2019-05-09T07:01:03.301Z,12.37
2019-05-09T07:02:03.319Z,12.61
2019-05-09T07:03:03.542Z,12.68
2019-05-09T07:04:03.771Z,12.53
2019-05-09T07:05:03.956Z,12.68
2019-05-09T07:06:04.172Z,12.70
2019-05-09T07:07:04.373Z,12.62
2019-05-09T07:08:23.476Z,12.57
2019-05-09T07:09:04.817Z,12.68
2019-05-09T07:10:07.445Z,12.65
2019-05-09T07:11:07.428Z,12.53
2019-05-09T07:12:07.657Z,12.57
2019-05-09T07:13:07.751Z,12.51
2019-05-09T07:14:05.742Z,12.44
2019-05-09T07:15:08.574Z,12.39
2019-05-09T07:16:06.136Z,12.58
2019-05-09T07:17:08.368Z,12.68
2019-05-09T07:18:08.133Z,12.84
2019-05-09T07:19:08.108Z,12.70
2019-05-09T07:20:08.602Z,12.66
2019-05-09T07:21:08.361Z,12.84
2019-05-09T07:22:09.067Z,12.91
2019-05-09T07:23:09.170Z,12.68
2019-05-09T07:24:08.592Z,12.54
2019-05-09T07:25:11.095Z,12.36
2019-05-09T07:26:08.943Z,12.39
2019-05-09T07:27:08.094Z,12.43
2019-05-09T07:28:08.251Z,12.36
2019-05-09T07:29:08.433Z,12.35
2019-05-09T07:30:08.656Z,12.15
2019-05-09T07:31:11.556Z,11.96
2019-05-09T07:32:09.026Z,11.86
2019-05-09T07:33:09.243Z,11.85
2019-05-09T07:34:09.438Z,11.78
2019-05-09T07:35:09.620Z,11.91
2019-05-09T07:36:09.812Z,11.73
2019-05-09T07:37:09.984Z,11.65
2019-05-09T07:38:10.244Z,11.65
2019-05-09T07:39:10.296Z,11.60
2019-05-09T07:40:10.470Z,11.73
2019-05-09T07:41:10.727Z,11.63
2019-05-09T07:42:10.770Z,11.65
2019-05-09T07:43:10.990Z,11.63
2019-05-09T07:44:11.173Z,11.68
2019-05-09T07:45:11.355Z,11.73
2019-05-09T07:46:11.591Z,11.88
2019-05-09T07:47:11.669Z,11.93
2019-05-09T07:48:11.848Z,11.88
2019-05-09T07:49:12.015Z,12.05
2019-05-09T07:50:12.229Z,12.12
2019-05-09T07:51:12.462Z,12.37
2019-05-09T07:52:12.609Z,12.44
2019-05-09T07:53:12.836Z,12.44
2019-05-09T07:54:21.995Z,12.48
2019-05-09T07:55:15.142Z,12.55
2019-05-09T07:56:13.277Z,12.55
2019-05-09T07:57:13.502Z,12.55
2019-05-09T07:58:14.442Z,12.76
2019-05-09T07:59:14.806Z,12.84
2019-05-09T08:00:13.948Z,12.99
2019-05-09T08:01:14.139Z,13.46
2019-05-09T08:02:14.336Z,13.40
2019-05-09T08:03:14.413Z,13.24
2019-05-09T08:04:14.709Z,12.98
2019-05-09T08:05:16.851Z,13.19
2019-05-09T08:06:15.048Z,13.26
2019-05-09T08:07:17.436Z,13.55
2019-05-09T08:08:15.355Z,13.67
2019-05-09T08:09:15.557Z,14.11
2019-05-09T08:10:17.537Z,14.45
2019-05-09T08:11:18.052Z,14.55
2019-05-09T08:12:17.969Z,14.28
2019-05-09T08:13:21.047Z,14.41
2019-05-09T08:14:17.741Z,14.70
2019-05-09T08:15:20.199Z,14.56
2019-05-09T08:16:18.595Z,14.45
2019-05-09T08:17:18.079Z,14.23
2019-05-09T08:18:18.197Z,14.23
2019-05-09T08:19:18.119Z,14.20
2019-05-09T08:20:18.520Z,14.86
2019-05-09T08:21:18.185Z,15.07
2019-05-09T08:22:24.910Z,15.12
2019-05-09T08:23:19.984Z,15.25
2019-05-09T08:24:18.423Z,15.15
2019-05-09T08:25:19.262Z,14.71
2019-05-09T08:26:18.990Z,14.85
2019-05-09T08:27:19.627Z,14.82
2019-05-09T08:28:20.164Z,14.85
2019-05-09T08:29:20.303Z,14.92
2019-05-09T08:30:20.074Z,14.99
2019-05-09T08:31:19.233Z,14.59
2019-05-09T08:32:19.427Z,14.55
2019-05-09T08:33:19.635Z,14.74
2019-05-09T08:34:19.905Z,14.85
2019-05-09T08:35:19.965Z,14.89
2019-05-09T08:36:20.427Z,14.71
2019-05-09T08:37:20.389Z,14.73
2019-05-09T08:38:20.559Z,15.54
2019-05-09T08:39:20.972Z,15.75
2019-05-09T08:40:21.537Z,16.34
2019-05-09T08:41:22.098Z,16.77
2019-05-09T08:42:21.223Z,16.86
2019-05-09T08:43:21.403Z,16.84
2019-05-09T08:44:21.601Z,16.72
2019-05-09T08:45:27.634Z,16.61
2019-05-09T08:46:23.930Z,16.64
2019-05-09T08:47:22.053Z,16.49
2019-05-09T08:48:22.203Z,16.39
2019-05-09T08:49:22.399Z,16.34
2019-05-09T08:50:22.580Z,15.83
2019-05-09T08:51:22.800Z,15.85
2019-05-09T08:52:22.990Z,15.62
2019-05-09T08:53:23.189Z,15.70
2019-05-09T08:54:23.357Z,15.92
2019-05-09T08:55:23.538Z,15.91
2019-05-09T08:56:23.792Z,16.43
2019-05-09T08:57:23.977Z,16.40
2019-05-09T08:58:24.163Z,16.39
2019-05-09T08:59:24.357Z,16.22
2019-05-09T09:00:24.508Z,16.54
2019-05-09T09:01:35.236Z,16.58
2019-05-09T09:02:28.334Z,16.87
2019-05-09T09:03:25.085Z,16.73
2019-05-09T09:04:25.262Z,16.65
2019-05-09T09:05:25.449Z,16.43
2019-05-09T09:06:27.775Z,16.39
2019-05-09T09:07:25.772Z,16.57
2019-05-09T09:08:28.341Z,16.36
2019-05-09T09:09:28.419Z,16.34
2019-05-09T09:10:28.495Z,16.72
2019-05-09T09:11:28.074Z,17.13
2019-05-09T09:12:34.109Z,17.07
2019-05-09T09:13:28.874Z,16.44
2019-05-09T09:14:28.092Z,16.46
2019-05-09T09:15:50.330Z,16.91
2019-05-09T09:16:29.418Z,17.16
2019-05-09T09:17:28.031Z,17.57
2019-05-09T09:18:28.652Z,17.31
2019-05-09T09:19:28.115Z,16.89
2019-05-09T09:20:29.104Z,17.38
2019-05-09T09:21:28.719Z,17.65
2019-05-09T09:22:29.337Z,17.30
2019-05-09T09:23:42.858Z,17.20
2019-05-09T09:24:30.656Z,17.50
2019-05-09T09:25:28.884Z,18.16
2019-05-09T09:26:28.953Z,18.63
2019-05-09T09:27:29.141Z,18.76
2019-05-09T09:28:29.352Z,19.12
2019-05-09T09:29:29.540Z,18.68
2019-05-09T09:30:30.010Z,18.76
2019-05-09T09:31:29.948Z,18.70
2019-05-09T09:32:31.107Z,18.61
2019-05-09T09:33:30.283Z,17.90
2019-05-09T09:34:30.520Z,17.39
2019-05-09T09:35:30.794Z,17.90
2019-05-09T09:36:30.970Z,17.78
2019-05-09T09:37:44.972Z,18.26
2019-05-09T09:38:33.284Z,18.83
2019-05-09T09:39:31.499Z,19.41
2019-05-09T09:40:31.700Z,18.86
2019-05-09T09:41:31.763Z,18.83
2019-05-09T09:42:31.973Z,18.57
2019-05-09T09:43:32.203Z,18.57
2019-05-09T09:44:32.430Z,18.48
2019-05-09T09:45:32.536Z,18.55
2019-05-09T09:46:32.743Z,17.79
2019-05-09T09:47:32.958Z,17.63
2019-05-09T09:48:33.193Z,17.30
2019-05-09T09:49:33.705Z,17.23
2019-05-09T09:50:33.569Z,16.86
2019-05-09T09:51:33.790Z,17.54
2019-05-09T09:52:34.574Z,17.38
2019-05-09T09:53:35.189Z,17.10
2019-05-09T09:54:34.356Z,16.69
2019-05-09T09:55:34.554Z,16.22
2019-05-09T09:56:34.764Z,16.26
2019-05-09T09:57:34.951Z,16.26
2019-05-09T09:58:35.141Z,16.18
2019-05-09T09:59:38.528Z,16.13
2019-05-09T10:00:38.204Z,16.34
2019-05-09T10:01:35.659Z,16.26
2019-05-09T10:02:37.839Z,15.91
2019-05-09T10:03:36.084Z,15.94
2019-05-09T10:04:37.554Z,15.87
2019-05-09T10:05:38.057Z,15.47
2019-05-09T10:06:38.800Z,15.44
2019-05-09T10:07:38.415Z,15.54
2019-05-09T10:08:39.720Z,16.05
2019-05-09T10:09:38.231Z,16.59
2019-05-09T10:10:37.374Z,17.54
2019-05-09T10:11:37.527Z,18.46
2019-05-09T10:12:43.552Z,18.74
2019-05-09T10:13:39.871Z,18.97
2019-05-09T10:14:37.991Z,19.79
2019-05-09T10:15:38.465Z,20.10
2019-05-09T10:16:39.323Z,20.48
2019-05-09T10:17:38.769Z,20.55
2019-05-09T10:18:39.605Z,20.21
2019-05-09T10:19:38.741Z,20.15
2019-05-09T10:20:38.993Z,20.03
2019-05-09T10:21:39.343Z,19.87
2019-05-09T10:22:46.521Z,19.71
2019-05-09T10:23:41.546Z,19.22
2019-05-09T10:24:39.771Z,19.67
2019-05-09T10:25:39.943Z,19.17
2019-05-09T10:26:40.227Z,19.27
2019-05-09T10:27:40.295Z,20.02
2019-05-09T10:28:40.465Z,19.55
2019-05-09T10:29:40.669Z,19.56
2019-05-09T10:30:40.867Z,20.40
2019-05-09T10:31:41.001Z,19.66
2019-05-09T10:32:41.168Z,18.79
2019-05-09T10:33:41.330Z,17.78
2019-05-09T10:34:41.502Z,17.13
2019-05-09T10:35:41.698Z,16.73
2019-05-09T10:36:41.914Z,16.54
2019-05-09T10:37:42.078Z,16.25
2019-05-09T10:38:43.227Z,15.83
2019-05-09T10:39:42.400Z,15.48
2019-05-09T10:40:42.614Z,15.48
2019-05-09T10:41:42.795Z,15.36
2019-05-09T10:42:42.956Z,15.33
2019-05-09T10:43:43.152Z,15.14
2019-05-09T10:44:43.358Z,15.12
2019-05-09T10:45:43.579Z,15.17
2019-05-09T10:46:52.591Z,15.14
2019-05-09T10:47:48.178Z,15.00
2019-05-09T10:48:44.013Z,14.85
2019-05-09T10:49:44.233Z,14.86
2019-05-09T10:50:46.132Z,14.55
2019-05-09T10:51:48.555Z,14.73
2019-05-09T10:52:44.800Z,14.82
2019-05-09T10:53:45.030Z,14.78
2019-05-09T10:54:45.215Z,14.70
2019-05-09T10:55:45.409Z,14.89
2019-05-09T10:56:45.627Z,14.77
2019-05-09T10:57:51.223Z,14.93
2019-05-09T10:58:48.267Z,15.07
2019-05-09T10:59:48.263Z,15.25
2019-05-09T11:00:48.328Z,15.27
2019-05-09T11:01:49.414Z,15.44
2019-05-09T11:02:48.322Z,15.55
2019-05-09T11:03:48.486Z,15.76
2019-05-09T11:04:49.139Z,16.08
2019-05-09T11:05:48.259Z,16.08
2019-05-09T11:06:47.397Z,16.54
2019-05-09T11:07:49.535Z,16.66
2019-05-09T11:08:48.042Z,16.69
2019-05-09T11:09:48.127Z,16.86
2019-05-09T11:10:48.961Z,17.14
2019-05-09T11:11:48.506Z,17.52
2019-05-09T11:12:49.310Z,18.48
2019-05-09T11:13:48.638Z,19.15
2019-05-09T11:14:48.689Z,19.89
2019-05-09T11:15:48.922Z,20.19
2019-05-09T11:16:54.309Z,20.37
2019-05-09T11:17:51.306Z,20.64
2019-05-09T11:18:49.410Z,20.39
2019-05-09T11:19:49.561Z,21.14
2019-05-09T11:20:49.755Z,21.29
2019-05-09T11:21:49.930Z,20.80
2019-05-09T11:22:50.095Z,20.24
2019-05-09T11:23:50.371Z,19.75
2019-05-09T11:24:51.248Z,19.01
2019-05-09T11:25:51.506Z,18.57
2019-05-09T11:26:50.750Z,18.12
2019-05-09T11:28:06.826Z,17.78
2019-05-09T11:28:53.110Z,17.49
2019-05-09T11:29:51.313Z,17.19
2019-05-09T11:30:51.358Z,17.19
2019-05-09T11:31:51.566Z,17.09
2019-05-09T11:32:51.735Z,17.09
2019-05-09T11:33:51.965Z,17.02
2019-05-09T11:34:52.169Z,16.82
2019-05-09T11:35:52.431Z,16.79
2019-05-09T11:36:52.523Z,16.54
2019-05-09T11:37:52.622Z,16.41
2019-05-09T11:38:52.970Z,16.34
2019-05-09T11:39:52.913Z,16.36
2019-05-09T11:40:53.071Z,16.28
2019-05-09T11:41:53.272Z,16.29
2019-05-09T11:42:53.421Z,16.06
2019-05-09T11:43:53.644Z,15.87
2019-05-09T11:44:53.834Z,15.87
2019-05-09T11:45:54.006Z,15.87
2019-05-09T11:46:54.230Z,15.99
2019-05-09T11:47:54.414Z,15.91
2019-05-09T11:48:54.613Z,15.98
2019-05-09T11:49:57.317Z,15.87
2019-05-09T11:50:57.732Z,15.73
2019-05-09T11:51:57.536Z,15.69
2019-05-09T11:52:55.355Z,15.65
2019-05-09T11:53:57.932Z,15.62
2019-05-09T11:54:57.901Z,15.33
2019-05-09T11:55:57.828Z,15.23
2019-05-09T11:56:57.660Z,14.90
2019-05-09T11:57:58.797Z,14.71
2019-05-09T11:58:57.883Z,14.71
2019-05-09T11:59:57.894Z,14.67
2019-05-09T12:00:57.661Z,14.58
2019-05-09T12:01:58.670Z,14.45
2019-05-09T12:02:58.267Z,14.30
2019-05-09T12:03:58.253Z,14.26
2019-05-09T12:04:57.394Z,14.20
2019-05-09T12:05:58.344Z,14.26
2019-05-09T12:06:58.761Z,14.40
2019-05-09T12:07:58.321Z,14.40
2019-05-09T12:08:59.244Z,14.45
2019-05-09T12:09:58.875Z,14.48
2019-05-09T12:10:59.427Z,14.55
2019-05-09T12:11:59.092Z,14.56
2019-05-09T12:12:59.731Z,14.58
2019-05-09T12:13:58.879Z,14.79
2019-05-09T12:14:59.048Z,14.59
2019-05-09T12:15:59.218Z,14.86
2019-05-09T12:16:59.359Z,15.02
2019-05-09T12:18:07.707Z,15.00
2019-05-09T12:19:01.639Z,15.29
2019-05-09T12:20:09.730Z,15.45
2019-05-09T12:21:02.052Z,15.63
2019-05-09T12:22:00.177Z,15.81
2019-05-09T12:23:00.331Z,15.94
2019-05-09T12:24:01.508Z,16.00
2019-05-09T12:25:00.680Z,16.08
2019-05-09T12:26:00.842Z,15.96
2019-05-09T12:27:03.029Z,15.81
2019-05-09T12:28:02.167Z,15.80
2019-05-09T12:29:01.334Z,15.78
2019-05-09T12:30:01.557Z,15.76
2019-05-09T12:31:01.760Z,15.76
2019-05-09T12:32:01.966Z,15.81
2019-05-09T12:33:02.153Z,16.03
2019-05-09T12:34:02.331Z,16.24
2019-05-09T12:35:02.813Z,16.28
2019-05-09T12:36:02.715Z,16.29
2019-05-09T12:37:02.918Z,16.18
2019-05-09T12:38:03.140Z,16.24
2019-05-09T12:39:03.342Z,16.40
2019-05-09T12:40:03.514Z,16.10
2019-05-09T12:41:03.860Z,16.05
2019-05-09T12:42:03.948Z,15.90
2019-05-09T12:43:04.145Z,15.67
2019-05-09T12:44:04.337Z,15.67
2019-05-09T12:45:04.491Z,15.60
2019-05-09T12:46:04.645Z,15.41
2019-05-09T12:47:04.828Z,15.26
2019-05-09T12:48:13.887Z,15.37
2019-05-09T12:49:08.932Z,15.50
2019-05-09T12:50:05.380Z,15.44
2019-05-09T12:51:08.088Z,15.27
2019-05-09T12:52:08.025Z,15.44
2019-05-09T12:53:05.868Z,15.47
2019-05-09T12:54:08.440Z,15.50
2019-05-09T12:55:08.189Z,15.47
2019-05-09T12:56:08.117Z,15.45
2019-05-09T12:57:08.085Z,15.39
2019-05-09T12:58:09.740Z,15.29
2019-05-09T12:59:08.750Z,15.32
2019-05-09T13:00:07.115Z,15.36
2019-05-09T13:01:08.279Z,15.22
2019-05-09T13:02:07.453Z,15.23
2019-05-09T13:03:08.488Z,15.39
2019-05-09T13:04:09.750Z,15.33
2019-05-09T13:05:08.957Z,15.37